sensor_id;sensor_type;location;lat;lon;timestamp;temperature;humidity
26304;DHT22;70693;48.680;8.890;2023-08-20T00:01:26;23.00;99.90
26304;DHT22;70693;48.680;8.890;2023-08-20T00:03:53;23.10;99.90
26304;DHT22;70693;48.680;8.890;2023-08-20T00:06:19;23.00;99.90
26304;DHT22;70693;48.680;8.890;2023-08-20T00:08:45;23.00;99.90
26304;DHT22;70693;48.680;8.890;2023-08-20T00:11:12;23.00;99.90
26304;DHT22;70693;48.680;8.890;2023-08-20T00:13:38;23.00;99.90
26304;DHT22;70693;48.680;8.890;2023-08-20T00:16:04;23.00;99.90
26304;DHT22;70693;48.680;8.890;2023-08-20T00:18:30;23.00;99.90
26304;DHT22;70693;48.680;8.890;2023-08-20T00:20:56;23.00;99.90
26304;DHT22;70693;48.680;8.890;2023-08-20T00:23:22;23.00;99.90
26304;DHT22;70693;48.680;8.890;2023-08-20T00:25:48;23.00;99.90
26304;DHT22;70693;48.680;8.890;2023-08-20T00:28:14;23.00;99.90
26304;DHT22;70693;48.680;8.890;2023-08-20T00:30:40;23.00;99.90
26304;DHT22;70693;48.680;8.890;2023-08-20T00:33:05;23.00;99.90
26304;DHT22;70693;48.680;8.890;2023-08-20T00:35:31;23.00;99.90
26304;DHT22;70693;48.680;8.890;2023-08-20T00:37:57;23.00;99.90
26304;DHT22;70693;48.680;8.890;2023-08-20T00:40:22;23.00;99.90
26304;DHT22;70693;48.680;8.890;2023-08-20T00:42:48;23.00;99.90
26304;DHT22;70693;48.680;8.890;2023-08-20T00:45:15;23.00;99.90
26304;DHT22;70693;48.680;8.890;2023-08-20T00:47:42;23.00;99.90
26304;DHT22;70693;48.680;8.890;2023-08-20T00:50:08;23.00;99.90
26304;DHT22;70693;48.680;8.890;2023-08-20T00:52:34;23.00;99.90
26304;DHT22;70693;48.680;8.890;2023-08-20T00:55:06;23.00;99.90
26304;DHT22;70693;48.680;8.890;2023-08-20T00:57:33;23.00;99.90
26304;DHT22;70693;48.680;8.890;2023-08-20T01:00:00;23.00;99.90
26304;DHT22;70693;48.680;8.890;2023-08-20T01:02:26;23.00;99.90
26304;DHT22;70693;48.680;8.890;2023-08-20T01:04:52;23.00;99.90
26304;DHT22;70693;48.680;8.890;2023-08-20T01:07:30;23.00;99.90
26304;DHT22;70693;48.680;8.890;2023-08-20T01:12:39;23.00;99.90
26304;DHT22;70693;48.680;8.890;2023-08-20T01:15:06;23.00;99.90
26304;DHT22;70693;48.680;8.890;2023-08-20T01:17:39;23.00;99.90
26304;DHT22;70693;48.680;8.890;2023-08-20T01:20:05;23.00;99.90
26304;DHT22;70693;48.680;8.890;2023-08-20T01:30:48;23.00;99.90
26304;DHT22;70693;48.680;8.890;2023-08-20T01:33:14;22.90;99.90
26304;DHT22;70693;48.680;8.890;2023-08-20T01:35:41;23.00;99.90
26304;DHT22;70693;48.680;8.890;2023-08-20T01:38:07;23.00;99.90
26304;DHT22;70693;48.680;8.890;2023-08-20T01:40:33;22.90;99.90
26304;DHT22;70693;48.680;8.890;2023-08-20T01:42:59;22.90;99.90
26304;DHT22;70693;48.680;8.890;2023-08-20T01:45:25;22.90;99.90
26304;DHT22;70693;48.680;8.890;2023-08-20T01:47:51;22.90;99.90
26304;DHT22;70693;48.680;8.890;2023-08-20T01:50:17;22.90;99.90
26304;DHT22;70693;48.680;8.890;2023-08-20T01:52:42;22.90;99.90
26304;DHT22;70693;48.680;8.890;2023-08-20T01:55:08;22.90;99.90
26304;DHT22;70693;48.680;8.890;2023-08-20T01:57:34;22.90;99.90
26304;DHT22;70693;48.680;8.890;2023-08-20T02:00:00;22.90;99.90
26304;DHT22;70693;48.680;8.890;2023-08-20T02:02:25;22.90;99.90
26304;DHT22;70693;48.680;8.890;2023-08-20T02:04:51;23.00;99.90
26304;DHT22;70693;48.680;8.890;2023-08-20T02:07:17;22.90;99.90
26304;DHT22;70693;48.680;8.890;2023-08-20T02:09:43;22.90;99.90
26304;DHT22;70693;48.680;8.890;2023-08-20T02:12:08;22.90;99.90
26304;DHT22;70693;48.680;8.890;2023-08-20T02:14:34;22.90;99.90
26304;DHT22;70693;48.680;8.890;2023-08-20T02:17:03;22.90;99.90
26304;DHT22;70693;48.680;8.890;2023-08-20T02:19:29;22.80;99.90
26304;DHT22;70693;48.680;8.890;2023-08-20T02:21:55;22.90;99.90
26304;DHT22;70693;48.680;8.890;2023-08-20T02:24:21;22.90;99.90
26304;DHT22;70693;48.680;8.890;2023-08-20T02:26:46;22.90;99.90
26304;DHT22;70693;48.680;8.890;2023-08-20T02:29:12;22.90;99.90
26304;DHT22;70693;48.680;8.890;2023-08-20T02:31:38;22.90;99.90
26304;DHT22;70693;48.680;8.890;2023-08-20T02:34:03;22.90;99.90
26304;DHT22;70693;48.680;8.890;2023-08-20T02:36:29;22.90;99.90
26304;DHT22;70693;48.680;8.890;2023-08-20T02:38:55;22.90;99.90
26304;DHT22;70693;48.680;8.890;2023-08-20T02:41:20;22.90;99.90
26304;DHT22;70693;48.680;8.890;2023-08-20T02:43:46;22.80;99.90
26304;DHT22;70693;48.680;8.890;2023-08-20T02:46:11;22.80;99.90
26304;DHT22;70693;48.680;8.890;2023-08-20T02:48:37;22.80;99.90
26304;DHT22;70693;48.680;8.890;2023-08-20T02:51:03;22.80;99.90
26304;DHT22;70693;48.680;8.890;2023-08-20T02:53:29;22.80;99.90
26304;DHT22;70693;48.680;8.890;2023-08-20T02:55:54;22.90;99.90
26304;DHT22;70693;48.680;8.890;2023-08-20T02:58:21;22.90;99.90
26304;DHT22;70693;48.680;8.890;2023-08-20T03:00:47;22.80;99.90
26304;DHT22;70693;48.680;8.890;2023-08-20T03:03:13;22.80;99.90
26304;DHT22;70693;48.680;8.890;2023-08-20T03:05:39;22.80;99.90
26304;DHT22;70693;48.680;8.890;2023-08-20T03:08:06;22.80;99.90
26304;DHT22;70693;48.680;8.890;2023-08-20T03:10:32;22.80;99.90
26304;DHT22;70693;48.680;8.890;2023-08-20T03:13:02;22.80;99.90
26304;DHT22;70693;48.680;8.890;2023-08-20T03:15:29;22.80;99.90
26304;DHT22;70693;48.680;8.890;2023-08-20T03:17:54;22.80;99.90
26304;DHT22;70693;48.680;8.890;2023-08-20T03:20:20;22.80;99.90
26304;DHT22;70693;48.680;8.890;2023-08-20T03:22:46;22.80;99.90
26304;DHT22;70693;48.680;8.890;2023-08-20T03:25:11;22.80;99.90
26304;DHT22;70693;48.680;8.890;2023-08-20T03:27:37;22.80;99.90
26304;DHT22;70693;48.680;8.890;2023-08-20T03:30:03;22.80;99.90
26304;DHT22;70693;48.680;8.890;2023-08-20T03:32:29;22.80;99.90
26304;DHT22;70693;48.680;8.890;2023-08-20T03:34:55;22.80;99.90
26304;DHT22;70693;48.680;8.890;2023-08-20T03:37:21;22.80;99.90
26304;DHT22;70693;48.680;8.890;2023-08-20T03:39:47;22.80;99.90
26304;DHT22;70693;48.680;8.890;2023-08-20T03:42:13;22.80;99.90
26304;DHT22;70693;48.680;8.890;2023-08-20T03:44:39;22.80;99.90
26304;DHT22;70693;48.680;8.890;2023-08-20T03:47:04;22.80;99.90
26304;DHT22;70693;48.680;8.890;2023-08-20T03:49:30;22.80;99.90
26304;DHT22;70693;48.680;8.890;2023-08-20T03:51:56;22.80;99.90
26304;DHT22;70693;48.680;8.890;2023-08-20T03:54:21;22.80;99.90
26304;DHT22;70693;48.680;8.890;2023-08-20T03:56:47;22.80;99.90
26304;DHT22;70693;48.680;8.890;2023-08-20T03:59:12;22.80;99.90
26304;DHT22;70693;48.680;8.890;2023-08-20T04:01:39;22.80;99.90
26304;DHT22;70693;48.680;8.890;2023-08-20T04:04:04;22.80;99.90
26304;DHT22;70693;48.680;8.890;2023-08-20T04:06:30;22.70;99.90
26304;DHT22;70693;48.680;8.890;2023-08-20T04:08:56;22.80;99.90
26304;DHT22;70693;48.680;8.890;2023-08-20T04:11:21;22.80;99.90
26304;DHT22;70693;48.680;8.890;2023-08-20T04:13:47;22.80;99.90
26304;DHT22;70693;48.680;8.890;2023-08-20T04:16:13;22.70;99.90
26304;DHT22;70693;48.680;8.890;2023-08-20T04:18:39;22.70;99.90
26304;DHT22;70693;48.680;8.890;2023-08-20T04:21:05;22.70;99.90
26304;DHT22;70693;48.680;8.890;2023-08-20T04:23:31;22.70;99.90
26304;DHT22;70693;48.680;8.890;2023-08-20T04:25:56;22.80;99.90
26304;DHT22;70693;48.680;8.890;2023-08-20T04:28:22;22.70;99.90
26304;DHT22;70693;48.680;8.890;2023-08-20T04:30:48;22.70;99.90
26304;DHT22;70693;48.680;8.890;2023-08-20T04:33:14;22.70;99.90
26304;DHT22;70693;48.680;8.890;2023-08-20T04:35:40;22.70;99.90
26304;DHT22;70693;48.680;8.890;2023-08-20T04:38:05;22.70;99.90
26304;DHT22;70693;48.680;8.890;2023-08-20T04:40:31;22.70;99.90
26304;DHT22;70693;48.680;8.890;2023-08-20T04:42:57;22.70;99.90
26304;DHT22;70693;48.680;8.890;2023-08-20T04:45:22;22.70;99.90
26304;DHT22;70693;48.680;8.890;2023-08-20T04:47:48;22.70;99.90
26304;DHT22;70693;48.680;8.890;2023-08-20T04:50:14;22.70;99.90
26304;DHT22;70693;48.680;8.890;2023-08-20T04:52:40;22.70;99.90
26304;DHT22;70693;48.680;8.890;2023-08-20T04:55:06;22.70;99.90
26304;DHT22;70693;48.680;8.890;2023-08-20T04:57:33;22.70;99.90
26304;DHT22;70693;48.680;8.890;2023-08-20T04:59:58;22.70;99.90
26304;DHT22;70693;48.680;8.890;2023-08-20T05:02:24;22.70;99.90
26304;DHT22;70693;48.680;8.890;2023-08-20T05:04:50;22.70;99.90
26304;DHT22;70693;48.680;8.890;2023-08-20T05:07:16;22.70;99.90
26304;DHT22;70693;48.680;8.890;2023-08-20T05:09:41;22.60;99.90
26304;DHT22;70693;48.680;8.890;2023-08-20T05:12:07;22.70;99.90
26304;DHT22;70693;48.680;8.890;2023-08-20T05:14:33;22.70;99.90
26304;DHT22;70693;48.680;8.890;2023-08-20T05:16:59;22.70;99.90
26304;DHT22;70693;48.680;8.890;2023-08-20T05:19:24;22.70;99.90
26304;DHT22;70693;48.680;8.890;2023-08-20T05:21:50;22.70;99.90
26304;DHT22;70693;48.680;8.890;2023-08-20T05:24:16;22.70;99.90
26304;DHT22;70693;48.680;8.890;2023-08-20T05:26:41;22.60;99.90
26304;DHT22;70693;48.680;8.890;2023-08-20T05:29:07;22.70;99.90
26304;DHT22;70693;48.680;8.890;2023-08-20T05:31:33;22.70;99.90
26304;DHT22;70693;48.680;8.890;2023-08-20T05:33:59;22.60;99.90
26304;DHT22;70693;48.680;8.890;2023-08-20T05:36:24;22.60;99.90
26304;DHT22;70693;48.680;8.890;2023-08-20T05:38:50;22.70;99.90
26304;DHT22;70693;48.680;8.890;2023-08-20T05:41:16;22.60;99.90
26304;DHT22;70693;48.680;8.890;2023-08-20T05:43:41;22.60;99.90
26304;DHT22;70693;48.680;8.890;2023-08-20T05:46:07;22.60;99.90
26304;DHT22;70693;48.680;8.890;2023-08-20T05:48:33;22.60;99.90
26304;DHT22;70693;48.680;8.890;2023-08-20T05:50:58;22.60;99.90
26304;DHT22;70693;48.680;8.890;2023-08-20T05:53:24;22.60;99.90
26304;DHT22;70693;48.680;8.890;2023-08-20T05:55:50;22.60;99.90
26304;DHT22;70693;48.680;8.890;2023-08-20T05:58:15;22.60;99.90
26304;DHT22;70693;48.680;8.890;2023-08-20T06:00:41;22.70;99.90
26304;DHT22;70693;48.680;8.890;2023-08-20T06:03:07;22.60;99.90
26304;DHT22;70693;48.680;8.890;2023-08-20T06:05:33;22.70;99.90
26304;DHT22;70693;48.680;8.890;2023-08-20T06:07:59;22.70;99.90
26304;DHT22;70693;48.680;8.890;2023-08-20T06:10:25;22.70;99.90
26304;DHT22;70693;48.680;8.890;2023-08-20T06:12:50;22.70;99.90
26304;DHT22;70693;48.680;8.890;2023-08-20T06:15:16;22.70;99.90
26304;DHT22;70693;48.680;8.890;2023-08-20T06:17:41;22.60;99.90
26304;DHT22;70693;48.680;8.890;2023-08-20T06:20:07;22.70;99.90
26304;DHT22;70693;48.680;8.890;2023-08-20T06:22:34;22.70;99.90
26304;DHT22;70693;48.680;8.890;2023-08-20T06:25:00;22.70;99.90
26304;DHT22;70693;48.680;8.890;2023-08-20T06:27:25;22.70;99.90
26304;DHT22;70693;48.680;8.890;2023-08-20T06:29:51;22.70;99.90
26304;DHT22;70693;48.680;8.890;2023-08-20T06:32:17;22.70;99.90
26304;DHT22;70693;48.680;8.890;2023-08-20T06:34:42;22.70;99.90
26304;DHT22;70693;48.680;8.890;2023-08-20T06:37:08;22.70;99.90
26304;DHT22;70693;48.680;8.890;2023-08-20T06:39:34;22.70;99.90
26304;DHT22;70693;48.680;8.890;2023-08-20T06:42:00;22.70;99.90
26304;DHT22;70693;48.680;8.890;2023-08-20T06:44:26;22.70;99.90
26304;DHT22;70693;48.680;8.890;2023-08-20T06:46:51;22.70;99.90
26304;DHT22;70693;48.680;8.890;2023-08-20T06:49:17;22.70;99.90
26304;DHT22;70693;48.680;8.890;2023-08-20T06:51:42;22.70;99.90
26304;DHT22;70693;48.680;8.890;2023-08-20T06:54:08;22.70;99.90
26304;DHT22;70693;48.680;8.890;2023-08-20T06:56:34;22.80;99.90
26304;DHT22;70693;48.680;8.890;2023-08-20T06:59:01;22.70;99.90
26304;DHT22;70693;48.680;8.890;2023-08-20T07:01:28;22.80;99.90
26304;DHT22;70693;48.680;8.890;2023-08-20T07:03:54;22.80;99.90
26304;DHT22;70693;48.680;8.890;2023-08-20T07:06:20;22.80;99.90
26304;DHT22;70693;48.680;8.890;2023-08-20T07:08:46;22.80;99.90
26304;DHT22;70693;48.680;8.890;2023-08-20T07:11:11;22.80;99.90
26304;DHT22;70693;48.680;8.890;2023-08-20T07:13:37;22.80;99.90
26304;DHT22;70693;48.680;8.890;2023-08-20T07:16:03;22.80;99.90
26304;DHT22;70693;48.680;8.890;2023-08-20T07:18:28;22.80;99.90
26304;DHT22;70693;48.680;8.890;2023-08-20T07:20:55;22.80;99.90
26304;DHT22;70693;48.680;8.890;2023-08-20T07:23:21;22.80;99.90
26304;DHT22;70693;48.680;8.890;2023-08-20T07:25:46;22.80;99.90
26304;DHT22;70693;48.680;8.890;2023-08-20T07:28:12;22.80;99.90
26304;DHT22;70693;48.680;8.890;2023-08-20T07:30:38;22.80;99.90
26304;DHT22;70693;48.680;8.890;2023-08-20T07:33:06;22.90;99.90
26304;DHT22;70693;48.680;8.890;2023-08-20T07:35:32;22.90;99.90
26304;DHT22;70693;48.680;8.890;2023-08-20T07:37:58;22.90;99.90
26304;DHT22;70693;48.680;8.890;2023-08-20T07:40:24;23.00;99.90
26304;DHT22;70693;48.680;8.890;2023-08-20T07:42:52;23.00;99.90
26304;DHT22;70693;48.680;8.890;2023-08-20T07:45:17;23.00;99.90
26304;DHT22;70693;48.680;8.890;2023-08-20T07:47:43;23.00;99.90
26304;DHT22;70693;48.680;8.890;2023-08-20T07:50:09;23.00;99.90
26304;DHT22;70693;48.680;8.890;2023-08-20T07:52:34;23.00;99.90
26304;DHT22;70693;48.680;8.890;2023-08-20T07:55:00;23.00;99.90
26304;DHT22;70693;48.680;8.890;2023-08-20T07:57:26;23.10;99.90
26304;DHT22;70693;48.680;8.890;2023-08-20T07:59:52;23.00;99.90
26304;DHT22;70693;48.680;8.890;2023-08-20T08:02:17;23.10;99.90
26304;DHT22;70693;48.680;8.890;2023-08-20T08:04:44;23.10;99.90
26304;DHT22;70693;48.680;8.890;2023-08-20T08:07:12;23.10;99.90
26304;DHT22;70693;48.680;8.890;2023-08-20T08:09:38;23.10;99.90
26304;DHT22;70693;48.680;8.890;2023-08-20T08:12:04;23.10;99.90
26304;DHT22;70693;48.680;8.890;2023-08-20T08:14:30;23.10;99.90
26304;DHT22;70693;48.680;8.890;2023-08-20T08:16:56;23.10;99.90
26304;DHT22;70693;48.680;8.890;2023-08-20T08:19:22;23.10;99.90
26304;DHT22;70693;48.680;8.890;2023-08-20T08:21:48;23.10;99.90
26304;DHT22;70693;48.680;8.890;2023-08-20T08:24:14;23.10;99.90
26304;DHT22;70693;48.680;8.890;2023-08-20T08:26:40;23.10;99.90
26304;DHT22;70693;48.680;8.890;2023-08-20T08:29:07;23.20;99.90
26304;DHT22;70693;48.680;8.890;2023-08-20T08:31:33;23.10;99.90
26304;DHT22;70693;48.680;8.890;2023-08-20T08:33:59;23.20;99.90
26304;DHT22;70693;48.680;8.890;2023-08-20T08:36:25;23.20;99.90
26304;DHT22;70693;48.680;8.890;2023-08-20T08:38:52;23.20;99.90
26304;DHT22;70693;48.680;8.890;2023-08-20T08:41:21;23.10;99.90
26304;DHT22;70693;48.680;8.890;2023-08-20T08:43:47;23.20;99.90
26304;DHT22;70693;48.680;8.890;2023-08-20T08:46:15;23.20;99.90
26304;DHT22;70693;48.680;8.890;2023-08-20T08:48:42;23.20;99.90
26304;DHT22;70693;48.680;8.890;2023-08-20T08:51:08;23.20;99.90
26304;DHT22;70693;48.680;8.890;2023-08-20T08:53:34;23.20;99.90
26304;DHT22;70693;48.680;8.890;2023-08-20T08:56:00;23.20;99.90
26304;DHT22;70693;48.680;8.890;2023-08-20T08:58:26;23.20;99.90
26304;DHT22;70693;48.680;8.890;2023-08-20T09:00:53;23.20;99.90
26304;DHT22;70693;48.680;8.890;2023-08-20T09:03:18;23.20;99.90
26304;DHT22;70693;48.680;8.890;2023-08-20T09:05:55;23.20;99.90
26304;DHT22;70693;48.680;8.890;2023-08-20T09:08:23;23.20;99.90
26304;DHT22;70693;48.680;8.890;2023-08-20T09:10:52;23.20;99.90
26304;DHT22;70693;48.680;8.890;2023-08-20T09:16:19;23.20;99.90
26304;DHT22;70693;48.680;8.890;2023-08-20T09:18:45;23.20;99.90
26304;DHT22;70693;48.680;8.890;2023-08-20T09:21:12;23.20;99.90
26304;DHT22;70693;48.680;8.890;2023-08-20T09:23:39;23.30;99.90
26304;DHT22;70693;48.680;8.890;2023-08-20T09:26:06;23.30;99.90
26304;DHT22;70693;48.680;8.890;2023-08-20T09:28:42;23.30;99.90
26304;DHT22;70693;48.680;8.890;2023-08-20T09:31:08;23.30;99.90
26304;DHT22;70693;48.680;8.890;2023-08-20T09:33:34;23.30;99.90
26304;DHT22;70693;48.680;8.890;2023-08-20T09:35:59;23.30;99.90
26304;DHT22;70693;48.680;8.890;2023-08-20T09:38:25;23.20;99.90
26304;DHT22;70693;48.680;8.890;2023-08-20T09:40:52;23.30;99.90
26304;DHT22;70693;48.680;8.890;2023-08-20T09:43:19;23.30;99.90
26304;DHT22;70693;48.680;8.890;2023-08-20T09:45:47;23.30;99.90
26304;DHT22;70693;48.680;8.890;2023-08-20T09:48:18;23.30;99.90
26304;DHT22;70693;48.680;8.890;2023-08-20T09:50:47;23.30;99.90
26304;DHT22;70693;48.680;8.890;2023-08-20T09:53:22;23.30;99.90
26304;DHT22;70693;48.680;8.890;2023-08-20T09:55:50;23.30;99.90
26304;DHT22;70693;48.680;8.890;2023-08-20T09:58:17;23.30;99.90
26304;DHT22;70693;48.680;8.890;2023-08-20T10:00:48;23.30;99.90
26304;DHT22;70693;48.680;8.890;2023-08-20T10:03:14;23.30;99.90
26304;DHT22;70693;48.680;8.890;2023-08-20T10:05:40;23.30;99.90
26304;DHT22;70693;48.680;8.890;2023-08-20T10:08:07;23.30;99.90
26304;DHT22;70693;48.680;8.890;2023-08-20T10:10:33;23.30;99.90
26304;DHT22;70693;48.680;8.890;2023-08-20T10:12:59;23.30;99.90
26304;DHT22;70693;48.680;8.890;2023-08-20T10:15:26;23.30;99.90
26304;DHT22;70693;48.680;8.890;2023-08-20T10:17:53;23.40;99.90
26304;DHT22;70693;48.680;8.890;2023-08-20T10:20:22;23.40;99.90
26304;DHT22;70693;48.680;8.890;2023-08-20T10:22:52;23.30;99.90
26304;DHT22;70693;48.680;8.890;2023-08-20T10:25:25;23.40;99.90
26304;DHT22;70693;48.680;8.890;2023-08-20T10:27:51;23.40;99.90
26304;DHT22;70693;48.680;8.890;2023-08-20T10:30:27;23.40;99.90
26304;DHT22;70693;48.680;8.890;2023-08-20T10:32:57;23.40;99.90
26304;DHT22;70693;48.680;8.890;2023-08-20T10:35:27;23.40;99.90
26304;DHT22;70693;48.680;8.890;2023-08-20T10:38:07;23.40;99.90
26304;DHT22;70693;48.680;8.890;2023-08-20T10:43:39;23.40;99.90
26304;DHT22;70693;48.680;8.890;2023-08-20T10:46:06;23.50;99.90
26304;DHT22;70693;48.680;8.890;2023-08-20T10:48:33;23.50;99.90
26304;DHT22;70693;48.680;8.890;2023-08-20T10:51:16;23.50;99.90
26304;DHT22;70693;48.680;8.890;2023-08-20T10:54:04;23.50;99.90
26304;DHT22;70693;48.680;8.890;2023-08-20T10:59:16;23.50;99.90
26304;DHT22;70693;48.680;8.890;2023-08-20T11:01:47;23.50;99.90
26304;DHT22;70693;48.680;8.890;2023-08-20T11:04:15;23.50;99.90
26304;DHT22;70693;48.680;8.890;2023-08-20T11:06:41;23.50;99.90
26304;DHT22;70693;48.680;8.890;2023-08-20T11:09:07;23.50;99.90
26304;DHT22;70693;48.680;8.890;2023-08-20T11:11:33;23.50;99.90
26304;DHT22;70693;48.680;8.890;2023-08-20T11:14:06;23.50;99.90
26304;DHT22;70693;48.680;8.890;2023-08-20T11:16:35;23.50;99.90
26304;DHT22;70693;48.680;8.890;2023-08-20T11:19:04;23.50;99.90
26304;DHT22;70693;48.680;8.890;2023-08-20T11:21:37;23.60;99.90
26304;DHT22;70693;48.680;8.890;2023-08-20T11:24:04;23.50;99.90
26304;DHT22;70693;48.680;8.890;2023-08-20T11:26:30;23.60;99.90
26304;DHT22;70693;48.680;8.890;2023-08-20T11:28:56;23.50;99.90
26304;DHT22;70693;48.680;8.890;2023-08-20T11:31:22;23.60;99.90
26304;DHT22;70693;48.680;8.890;2023-08-20T11:33:49;23.60;99.90
26304;DHT22;70693;48.680;8.890;2023-08-20T11:36:15;23.60;99.90
26304;DHT22;70693;48.680;8.890;2023-08-20T11:38:54;23.60;99.90
26304;DHT22;70693;48.680;8.890;2023-08-20T11:41:24;23.60;99.90
26304;DHT22;70693;48.680;8.890;2023-08-20T11:43:51;23.60;99.90
26304;DHT22;70693;48.680;8.890;2023-08-20T11:46:19;23.60;99.90
26304;DHT22;70693;48.680;8.890;2023-08-20T11:49:05;23.60;99.90
26304;DHT22;70693;48.680;8.890;2023-08-20T11:51:49;23.60;99.90
26304;DHT22;70693;48.680;8.890;2023-08-20T11:54:18;23.60;99.90
26304;DHT22;70693;48.680;8.890;2023-08-20T11:56:45;23.60;99.90
26304;DHT22;70693;48.680;8.890;2023-08-20T11:59:12;23.60;99.90
26304;DHT22;70693;48.680;8.890;2023-08-20T12:01:38;23.60;99.90
26304;DHT22;70693;48.680;8.890;2023-08-20T12:04:05;23.60;99.90
26304;DHT22;70693;48.680;8.890;2023-08-20T12:06:30;23.60;99.90
26304;DHT22;70693;48.680;8.890;2023-08-20T12:08:59;23.60;99.90
26304;DHT22;70693;48.680;8.890;2023-08-20T12:11:26;23.60;99.90
26304;DHT22;70693;48.680;8.890;2023-08-20T12:13:51;23.70;99.90
26304;DHT22;70693;48.680;8.890;2023-08-20T12:16:18;23.60;99.90
26304;DHT22;70693;48.680;8.890;2023-08-20T12:18:46;23.70;99.90
26304;DHT22;70693;48.680;8.890;2023-08-20T12:21:11;23.60;99.90
26304;DHT22;70693;48.680;8.890;2023-08-20T12:23:37;23.60;99.90
26304;DHT22;70693;48.680;8.890;2023-08-20T12:26:02;23.70;99.90
26304;DHT22;70693;48.680;8.890;2023-08-20T12:28:29;23.70;99.90
26304;DHT22;70693;48.680;8.890;2023-08-20T12:30:54;23.70;99.90
26304;DHT22;70693;48.680;8.890;2023-08-20T12:33:20;23.70;99.90
26304;DHT22;70693;48.680;8.890;2023-08-20T12:35:46;23.70;99.90
26304;DHT22;70693;48.680;8.890;2023-08-20T12:38:12;23.70;99.90
26304;DHT22;70693;48.680;8.890;2023-08-20T12:40:38;23.70;99.90
26304;DHT22;70693;48.680;8.890;2023-08-20T12:43:04;23.70;99.90
26304;DHT22;70693;48.680;8.890;2023-08-20T12:45:30;23.70;99.90
26304;DHT22;70693;48.680;8.890;2023-08-20T12:47:55;23.70;99.90
26304;DHT22;70693;48.680;8.890;2023-08-20T12:50:21;23.70;99.90
26304;DHT22;70693;48.680;8.890;2023-08-20T12:52:47;23.70;99.90
26304;DHT22;70693;48.680;8.890;2023-08-20T12:55:14;23.70;99.90
26304;DHT22;70693;48.680;8.890;2023-08-20T12:57:53;23.70;99.90
26304;DHT22;70693;48.680;8.890;2023-08-20T13:00:20;23.70;99.90
26304;DHT22;70693;48.680;8.890;2023-08-20T13:02:46;23.70;99.90
26304;DHT22;70693;48.680;8.890;2023-08-20T13:05:12;23.70;99.90
26304;DHT22;70693;48.680;8.890;2023-08-20T13:07:38;23.70;99.90
26304;DHT22;70693;48.680;8.890;2023-08-20T13:10:04;23.80;99.90
26304;DHT22;70693;48.680;8.890;2023-08-20T13:12:32;23.70;99.90
26304;DHT22;70693;48.680;8.890;2023-08-20T13:14:59;23.70;99.90
26304;DHT22;70693;48.680;8.890;2023-08-20T13:17:25;23.80;99.90
26304;DHT22;70693;48.680;8.890;2023-08-20T13:19:51;23.80;99.90
26304;DHT22;70693;48.680;8.890;2023-08-20T13:22:17;23.80;99.90
26304;DHT22;70693;48.680;8.890;2023-08-20T13:24:43;23.80;99.90
26304;DHT22;70693;48.680;8.890;2023-08-20T13:27:09;23.80;99.90
26304;DHT22;70693;48.680;8.890;2023-08-20T13:29:34;23.80;99.90
26304;DHT22;70693;48.680;8.890;2023-08-20T13:32:00;23.80;99.90
26304;DHT22;70693;48.680;8.890;2023-08-20T13:34:26;23.80;99.90
26304;DHT22;70693;48.680;8.890;2023-08-20T13:36:52;23.80;99.90
26304;DHT22;70693;48.680;8.890;2023-08-20T13:39:17;23.80;99.90
26304;DHT22;70693;48.680;8.890;2023-08-20T13:41:44;23.80;99.90
26304;DHT22;70693;48.680;8.890;2023-08-20T13:44:09;23.80;99.90
26304;DHT22;70693;48.680;8.890;2023-08-20T13:46:35;23.80;99.90
26304;DHT22;70693;48.680;8.890;2023-08-20T13:49:01;23.80;99.90
26304;DHT22;70693;48.680;8.890;2023-08-20T13:51:29;23.80;99.90
26304;DHT22;70693;48.680;8.890;2023-08-20T13:53:54;23.80;99.90
26304;DHT22;70693;48.680;8.890;2023-08-20T13:56:20;23.80;99.90
26304;DHT22;70693;48.680;8.890;2023-08-20T13:58:46;23.80;99.90
26304;DHT22;70693;48.680;8.890;2023-08-20T14:01:11;23.80;99.90
26304;DHT22;70693;48.680;8.890;2023-08-20T14:03:39;23.80;99.90
26304;DHT22;70693;48.680;8.890;2023-08-20T14:06:05;23.80;99.90
26304;DHT22;70693;48.680;8.890;2023-08-20T14:08:31;23.80;99.90
26304;DHT22;70693;48.680;8.890;2023-08-20T14:10:58;23.70;99.90
26304;DHT22;70693;48.680;8.890;2023-08-20T14:13:23;23.80;99.90
26304;DHT22;70693;48.680;8.890;2023-08-20T14:15:50;23.80;99.90
26304;DHT22;70693;48.680;8.890;2023-08-20T14:18:15;23.70;99.90
26304;DHT22;70693;48.680;8.890;2023-08-20T14:20:41;23.80;99.90
26304;DHT22;70693;48.680;8.890;2023-08-20T14:23:06;23.70;99.90
26304;DHT22;70693;48.680;8.890;2023-08-20T14:25:32;23.70;99.90
26304;DHT22;70693;48.680;8.890;2023-08-20T14:27:58;23.70;99.90
26304;DHT22;70693;48.680;8.890;2023-08-20T14:30:23;23.70;99.90
26304;DHT22;70693;48.680;8.890;2023-08-20T14:32:49;23.70;99.90
26304;DHT22;70693;48.680;8.890;2023-08-20T14:35:14;23.70;99.90
26304;DHT22;70693;48.680;8.890;2023-08-20T14:37:40;23.70;99.90
26304;DHT22;70693;48.680;8.890;2023-08-20T14:40:06;23.70;99.90
26304;DHT22;70693;48.680;8.890;2023-08-20T14:42:33;23.70;99.90
26304;DHT22;70693;48.680;8.890;2023-08-20T14:44:58;23.70;99.90
26304;DHT22;70693;48.680;8.890;2023-08-20T14:47:24;23.70;99.90
26304;DHT22;70693;48.680;8.890;2023-08-20T14:49:50;23.70;99.90
26304;DHT22;70693;48.680;8.890;2023-08-20T14:52:15;23.70;99.90
26304;DHT22;70693;48.680;8.890;2023-08-20T14:54:41;23.70;99.90
26304;DHT22;70693;48.680;8.890;2023-08-20T14:57:07;23.70;99.90
26304;DHT22;70693;48.680;8.890;2023-08-20T14:59:33;23.70;99.90
26304;DHT22;70693;48.680;8.890;2023-08-20T15:01:59;23.70;99.90
26304;DHT22;70693;48.680;8.890;2023-08-20T15:04:25;23.70;99.90
26304;DHT22;70693;48.680;8.890;2023-08-20T15:06:51;23.70;99.90
26304;DHT22;70693;48.680;8.890;2023-08-20T15:09:16;23.70;99.90
26304;DHT22;70693;48.680;8.890;2023-08-20T15:11:42;23.70;99.90
26304;DHT22;70693;48.680;8.890;2023-08-20T15:14:08;23.70;99.90
26304;DHT22;70693;48.680;8.890;2023-08-20T15:16:34;23.70;99.90
26304;DHT22;70693;48.680;8.890;2023-08-20T15:18:59;23.70;99.90
26304;DHT22;70693;48.680;8.890;2023-08-20T15:21:26;23.90;99.90
26304;DHT22;70693;48.680;8.890;2023-08-20T15:23:52;24.00;99.90
26304;DHT22;70693;48.680;8.890;2023-08-20T15:26:17;24.10;99.90
26304;DHT22;70693;48.680;8.890;2023-08-20T15:28:43;24.00;99.90
26304;DHT22;70693;48.680;8.890;2023-08-20T15:31:09;24.00;99.90
26304;DHT22;70693;48.680;8.890;2023-08-20T15:33:34;24.00;99.90
26304;DHT22;70693;48.680;8.890;2023-08-20T15:36:00;24.00;99.90
26304;DHT22;70693;48.680;8.890;2023-08-20T15:38:26;24.00;99.90
26304;DHT22;70693;48.680;8.890;2023-08-20T15:40:54;23.90;99.90
26304;DHT22;70693;48.680;8.890;2023-08-20T15:43:19;23.90;99.90
26304;DHT22;70693;48.680;8.890;2023-08-20T15:45:47;23.90;99.90